Ana Sayfa
METAR-TAF:

METAR-TAF

Havaalanları :

Upshur County Regional Airport

Buckhannon, Batı Virginia, Amerika Birleşik Devletleri

Enlem: 39-00N, Boylam: 080-16W, yükseklik: 498 m

Güncel hava durumu gözlemi

Rapor saat 15:15 UTC de 19 dakika önce yapıldı.
Rüzgar batı/güneybatıdan 9 kt
Sıcaklık 1°C
Nem 37%
Basınç 1030 hPa
Görüş mesafesi: 16.1 km
Açık gökyüzü

METAR: KW22 221515Z AUTO 24009KT 10SM CLR 01/M12 A3043 RMK AO2

Saat: 10:34 (15:34 UTC)


TAF: eksik

4.000'den fazla havaalanı için hava durumu gözlemleri ve tahminleri (METAR ve TAF raporları).

Kullanılabilir istasyonlar harita üzerinde sarı ve kırmızı noktalarla gösterilir.

İstasyonun adını görmek için fareyi noktanın üzerinde gezdirin.

Sonrasında hava gözlem ve tahminlerini görmek için tıklayın.

Haritayı değiştirmek için: yaklaştırmak için siyah artı işaretli yeşil düğmeye ve uzaklaştırmak için de eksi işaretli düğmeye hızla tıklayın; bitişik haritalar için yeşil okları kullanın.


METAR-TAF: